Wolcottville, Indiana
Current Conditions -  °F | °C
As of 6:55 PM on Sunday 23 Nov 2014 (Local Time) from KANQ Reporting Station
Overcast Overcast  
Wind Chill: 50°   Ceiling: 4100
Heat Index: 50°   Visibility: 4mi
Dew Point: 39°   Wind: 9mph
Humidity: 66%   Direction: 130°SE
Pressure: 29.48"   Gusts: NA
Location:  41.53°N, 85.37°W
Report Text: KANQ 232355Z AUTO 13008KT 4SM FEW007 SCT030 OVC041 10/04 A2948 RMK
Loading
Personal Weather Stations






























Interactive Weather Map New forecast layout! Learn more

10-Day Weather Forecast

Advertisements
Track Severe Weather on mobile